Time;durP1;ratioP1;P1;durP2;ratioP2;P2;SDS_P1;SDS_P2;PMS_P1;PMS_P2;Temp;Humidity;BMP_temperature;BMP_pressure;BME280_temperature;BME280_humidity;BME280_pressure;Samples;Min_cycle;Max_cycle;Signal;HPM_P1;HPM_P2
2022/04/04 00:02:00;;;;;;;17.83;6.22;;;;;;;1.35;78.34;101773.59;5047894;28;20029;-75
2022/04/04 00:04:25;;;;;;;17.08;5.85;;;;;;;1.35;78.03;101785.97;5049461;28;20044;-75
2022/04/04 00:06:50;;;;;;;20.33;7.65;;;;;;;1.33;78.54;101767.47;5051036;28;20035;-75
2022/04/04 00:09:15;;;;;;;18.90;6.18;;;;;;;1.34;78.34;101768.34;5048688;28;20061;-75
2022/04/04 00:11:41;;;;;;;17.85;6.35;;;;;;;1.32;78.60;101767.50;5046080;28;20083;-75
2022/04/04 00:14:06;;;;;;;15.48;5.80;;;;;;;1.32;78.77;101762.22;5046813;28;20067;-75
2022/04/04 00:16:32;;;;;;;16.15;5.53;;;;;;;1.31;78.39;101761.31;5043229;28;20024;-75
2022/04/04 00:18:59;;;;;;;17.90;5.60;;;;;;;1.32;78.61;101754.28;5054073;28;20116;-75
2022/04/04 00:21:24;;;;;;;19.05;6.30;;;;;;;1.32;78.34;101751.63;5044883;28;20025;-75
2022/04/04 00:23:49;;;;;;;17.63;6.72;;;;;;;1.29;78.30;101747.25;5032946;28;20079;-75
2022/04/04 00:26:15;;;;;;;16.48;6.18;;;;;;;1.28;78.38;101740.19;5049289;28;20465;-75
2022/04/04 00:28:40;;;;;;;19.63;6.80;;;;;;;1.26;78.00;101741.13;5052539;28;20028;-75
2022/04/04 00:31:05;;;;;;;17.52;6.25;;;;;;;1.28;78.16;101734.91;5048235;28;20026;-75
2022/04/04 00:33:31;;;;;;;18.80;6.97;;;;;;;1.26;78.28;101736.72;5053667;28;20472;-75
2022/04/04 00:35:56;;;;;;;19.27;7.15;;;;;;;1.25;78.90;101734.97;5053445;28;20100;-75
2022/04/04 00:38:22;;;;;;;18.92;6.72;;;;;;;1.26;78.57;101730.53;5047627;28;20032;-75
2022/04/04 00:40:48;;;;;;;18.77;6.53;;;;;;;1.26;78.59;101731.44;5052015;28;20047;-75
2022/04/04 00:43:13;;;;;;;17.92;6.30;;;;;;;1.25;78.17;101727.03;5053080;28;20037;-75
2022/04/04 00:45:44;;;;;;;20.90;7.22;;;;;;;1.26;78.44;101723.47;5052495;28;20036;-75
2022/04/04 00:48:09;;;;;;;21.80;7.20;;;;;;;1.26;78.24;101714.66;5048075;28;20155;-75
2022/04/04 00:50:34;;;;;;;21.17;6.75;;;;;;;1.25;78.02;101716.44;5053081;28;20100;-75
2022/04/04 00:53:01;;;;;;;21.40;7.85;;;;;;;1.25;78.27;101710.28;5051927;28;20040;-75
2022/04/04 00:55:26;;;;;;;19.42;7.03;;;;;;;1.24;78.38;101709.38;5051516;28;20028;-75
2022/04/04 00:57:54;;;;;;;19.35;7.13;;;;;;;1.22;78.41;101709.41;5041166;28;20464;-75
2022/04/04 01:00:20;;;;;;;19.80;6.55;;;;;;;1.21;78.42;101704.16;5042546;28;20024;-75
2022/04/04 01:02:46;;;;;;;18.67;6.70;;;;;;;1.20;78.44;101699.75;5045904;28;20108;-75
2022/04/04 01:05:12;;;;;;;20.58;7.80;;;;;;;1.20;78.67;101699.75;5052276;28;20490;-75
2022/04/04 01:07:39;;;;;;;20.58;7.13;;;;;;;1.19;78.36;101698.88;5051485;28;20451;-75
2022/04/04 01:10:06;;;;;;;18.23;7.28;;;;;;;1.17;78.48;101695.41;5053050;28;20029;-75
2022/04/04 01:12:32;;;;;;;20.70;8.07;;;;;;;1.19;78.64;101693.59;5051725;28;20037;-75
2022/04/04 01:14:57;;;;;;;21.40;7.75;;;;;;;1.16;78.03;101683.06;5051604;28;20033;-75
2022/04/04 01:17:24;;;;;;;19.52;7.80;;;;;;;1.17;78.44;101678.63;5051897;28;20557;-75
2022/04/04 01:19:49;;;;;;;25.48;8.30;;;;;;;1.19;78.28;101675.06;5043435;28;20025;-75
2022/04/04 01:22:15;;;;;;;21.98;8.38;;;;;;;1.19;77.80;101667.13;5051577;28;20480;-75
2022/04/04 01:24:41;;;;;;;20.33;8.02;;;;;;;1.17;78.34;101660.09;5050766;28;20025;-75
2022/04/04 01:27:08;;;;;;;21.55;7.65;;;;;;;1.18;77.68;101659.22;5051329;28;20025;-75
2022/04/04 01:29:34;;;;;;;20.40;7.22;;;;;;;1.17;78.23;101660.09;5053044;28;20032;-75
2022/04/04 01:32:00;;;;;;;21.58;7.60;;;;;;;1.17;78.15;101657.44;5050600;28;20535;-75
2022/04/04 01:34:25;;;;;;;18.95;7.53;;;;;;;1.17;78.08;101641.56;5049395;28;20790;-75
2022/04/04 01:36:51;;;;;;;22.83;7.78;;;;;;;1.18;77.87;101644.19;5041920;28;20029;-75
2022/04/04 01:39:17;;;;;;;19.52;7.20;;;;;;;1.17;77.39;101629.22;5052506;28;20189;-75
2022/04/04 01:41:43;;;;;;;20.27;8.27;;;;;;;1.18;77.60;101627.44;5052094;28;20040;-75
2022/04/04 01:44:08;;;;;;;20.35;7.43;;;;;;;1.18;77.48;101625.66;5031664;28;20562;-75
2022/04/04 01:46:34;;;;;;;21.65;7.75;;;;;;;1.19;77.22;101614.16;5041309;28;20081;-75
2022/04/04 01:49:01;;;;;;;20.85;7.22;;;;;;;1.18;77.24;101616.84;5050870;28;20159;-75
2022/04/04 01:51:27;;;;;;;20.40;7.32;;;;;;;1.19;77.29;101613.31;5045820;28;20066;-75
2022/04/04 01:53:53;;;;;;;21.33;7.90;;;;;;;1.20;77.05;101612.38;5038663;28;20037;-75
2022/04/04 01:56:18;;;;;;;19.42;7.35;;;;;;;1.21;77.52;101601.75;5042924;28;20041;-75
2022/04/04 01:58:44;;;;;;;19.33;7.32;;;;;;;1.22;77.08;101598.19;5045467;28;20056;-75
2022/04/04 02:01:18;;;;;;;20.63;7.35;;;;;;;1.23;77.11;101596.44;5050558;28;20032;-75
2022/04/04 02:03:47;;;;;;;19.73;6.97;;;;;;;1.21;76.88;101585.84;5051734;28;20369;-75
2022/04/04 02:06:13;;;;;;;20.08;7.32;;;;;;;1.24;77.00;101582.28;5050606;28;20039;-74
2022/04/04 02:08:39;;;;;;;19.50;7.18;;;;;;;1.25;76.60;101580.53;5047469;28;20052;-74
2022/04/04 02:11:05;;;;;;;19.58;6.95;;;;;;;1.25;76.98;101576.09;5050314;28;20040;-74
2022/04/04 02:13:30;;;;;;;19.13;7.00;;;;;;;1.25;76.77;101564.63;5051806;28;20035;-74
2022/04/04 02:16:00;;;;;;;25.38;7.78;;;;;;;1.26;76.55;101575.19;5047823;28;20039;-74
2022/04/04 02:18:26;;;;;;;;;;;;;;;1.32;76.14;101569.75;5050608;28;20020;-74
2022/04/04 02:20:51;;;;;;;17.83;6.57;;;;;;;1.26;76.61;101566.34;5052171;28;20297;-74
2022/04/04 02:23:18;;;;;;;17.08;6.65;;;;;;;1.28;76.37;101562.78;5042046;28;20040;-74
2022/04/04 02:25:44;;;;;;;18.15;6.43;;;;;;;1.31;76.55;101561.84;5049012;28;20025;-74
2022/04/04 02:28:10;;;;;;;17.88;6.97;;;;;;;1.33;76.57;101552.06;5051443;28;20029;-74
2022/04/04 02:30:35;;;;;;;19.50;6.88;;;;;;;1.34;76.56;101548.53;5051584;28;20385;-74
2022/04/04 02:33:01;;;;;;;19.35;6.65;;;;;;;1.35;76.61;101539.69;5051392;28;20025;-74
2022/04/04 02:35:27;;;;;;;18.50;5.97;;;;;;;1.38;76.27;101537.81;5044594;28;20059;-74
2022/04/04 02:37:52;;;;;;;20.15;7.20;;;;;;;1.39;76.10;101536.91;5031893;28;20029;-74
2022/04/04 02:40:17;;;;;;;19.95;6.53;;;;;;;1.42;76.41;101529.78;5047232;28;20072;-74
2022/04/04 02:42:42;;;;;;;19.35;6.25;;;;;;;1.45;76.41;101527.06;5043720;28;20013;-74
2022/04/04 02:45:08;;;;;;;20.75;7.45;;;;;;;1.45;76.24;101522.66;5044931;28;20028;-74
2022/04/04 02:47:33;;;;;;;17.98;6.32;;;;;;;1.48;76.19;101524.34;5048364;28;20404;-74
2022/04/04 02:49:58;;;;;;;18.20;6.53;;;;;;;1.49;76.41;101507.53;5050194;28;20039;-74
2022/04/04 02:52:24;;;;;;;21.20;6.90;;;;;;;1.50;75.79;101509.28;5040196;28;20094;-74
2022/04/04 02:54:49;;;;;;;17.92;6.25;;;;;;;1.52;76.03;101499.50;5049219;28;20025;-74
2022/04/04 02:57:16;;;;;;;21.05;7.50;;;;;;;1.53;76.07;101494.19;5049810;28;20033;-74
2022/04/04 02:59:41;;;;;;;18.05;6.47;;;;;;;1.56;75.87;101487.94;5051105;28;20099;-74
2022/04/04 03:02:07;;;;;;;17.90;6.15;;;;;;;1.59;76.09;101479.03;5045301;28;20105;-74
2022/04/04 03:04:32;;;;;;;16.80;6.07;;;;;;;1.59;76.35;101469.31;5045070;28;20033;-74
2022/04/04 03:06:57;;;;;;;16.58;6.47;;;;;;;1.60;75.71;101475.47;5045178;28;20428;-74
2022/04/04 03:09:23;;;;;;;18.33;5.85;;;;;;;1.61;76.57;101470.16;5036831;28;20029;-74
2022/04/04 03:11:48;;;;;;;16.63;5.72;;;;;;;1.63;75.81;101460.38;5050890;28;20067;-74
2022/04/04 03:14:13;;;;;;;18.35;6.13;;;;;;;1.65;75.95;101466.50;5046542;28;20037;-74
2022/04/04 03:16:38;;;;;;;19.23;6.65;;;;;;;1.66;76.07;101455.00;5048499;28;20033;-74
2022/04/04 03:19:04;;;;;;;17.35;6.18;;;;;;;1.67;76.22;101454.09;5050726;28;20033;-74
2022/04/04 03:21:29;;;;;;;16.92;6.03;;;;;;;1.68;76.19;101439.91;5050744;28;20487;-74
2022/04/04 03:23:55;;;;;;;16.83;5.72;;;;;;;1.69;76.35;101441.66;5046767;28;20029;-74
2022/04/04 03:26:20;;;;;;;18.35;6.15;;;;;;;1.71;75.84;101431.91;5040738;28;20029;-74
2022/04/04 03:28:46;;;;;;;19.65;6.13;;;;;;;1.73;76.08;101432.72;5044405;28;20060;-74
2022/04/04 03:31:12;;;;;;;19.38;5.93;;;;;;;1.76;76.49;101431.78;5044887;28;20469;-74
2022/04/04 03:33:38;;;;;;;18.25;6.38;;;;;;;1.77;76.02;101425.53;5050601;28;20098;-74
2022/04/04 03:36:04;;;;;;;18.05;6.07;;;;;;;1.79;76.46;101418.44;5051011;28;20033;-74
2022/04/04 03:38:29;;;;;;;19.00;5.95;;;;;;;1.83;76.15;101411.25;5048158;28;20033;-75
2022/04/04 03:40:55;;;;;;;17.10;5.97;;;;;;;1.83;76.23;101405.97;5050981;28;20037;-75
2022/04/04 03:43:22;;;;;;;18.40;6.65;;;;;;;1.86;76.60;101403.22;5044974;28;20376;-75
2022/04/04 03:45:47;;;;;;;16.25;5.72;;;;;;;1.87;76.22;101394.38;5050813;28;20113;-75
2022/04/04 03:48:12;;;;;;;17.92;6.43;;;;;;;1.90;76.37;101394.28;5049408;28;20803;-75
2022/04/04 03:50:38;;;;;;;19.75;6.70;;;;;;;1.91;76.52;101386.28;5050425;28;20062;-75
2022/04/04 03:53:04;;;;;;;20.85;6.90;;;;;;;1.92;76.18;101389.81;5035997;28;20052;-75
2022/04/04 03:55:34;;;;;;;16.83;5.68;;;;;;;1.94;76.76;101381.81;5044477;28;20052;-75
2022/04/04 03:58:00;;;;;;;18.85;5.57;;;;;;;1.96;76.51;101375.53;5049789;28;20025;-75
2022/04/04 04:00:26;;;;;;;21.63;6.80;;;;;;;2.00;76.47;101379.84;5034941;28;20495;-75
2022/04/04 04:02:53;;;;;;;20.65;6.47;;;;;;;2.02;76.68;101378.03;5050584;28;20025;-75
2022/04/04 04:05:18;;;;;;;19.42;6.63;;;;;;;2.04;76.36;101370.88;5048282;28;20041;-75
2022/04/04 04:07:44;;;;;;;19.48;6.50;;;;;;;2.06;76.86;101357.59;5050529;28;20401;-75
2022/04/04 04:10:11;;;;;;;18.90;6.38;;;;;;;2.08;76.82;101359.28;5049840;28;20021;-75
2022/04/04 04:12:42;;;;;;;17.33;6.18;;;;;;;2.13;77.03;101360.94;5048565;28;20041;-75
2022/04/04 04:15:10;;;;;;;18.33;6.30;;;;;;;2.14;76.95;101354.69;5049116;28;20384;-75
2022/04/04 04:17:36;;;;;;;20.83;7.60;;;;;;;2.15;76.74;101351.13;5042382;28;20393;-75
2022/04/04 04:20:19;;;;;;;18.35;6.57;;;;;;;2.17;76.94;101342.22;5051304;28;20063;-75
2022/04/04 04:22:52;;;;;;;17.90;6.50;;;;;;;2.18;76.44;101336.03;5035203;28;20050;-75
2022/04/04 04:25:18;;;;;;;22.65;8.07;;;;;;;2.20;76.97;101330.66;5051959;28;20111;-75
2022/04/04 04:27:45;;;;;;;20.75;7.05;;;;;;;2.22;76.77;101329.69;5041732;28;20033;-75
2022/04/04 04:30:11;;;;;;;17.08;6.65;;;;;;;2.25;76.76;101326.06;5044421;28;20033;-75
2022/04/04 04:32:36;;;;;;;19.05;6.93;;;;;;;2.26;76.74;101317.22;5049052;28;20078;-74
2022/04/04 04:35:02;;;;;;;21.35;7.57;;;;;;;2.27;76.90;101318.97;5043346;28;20032;-74
2022/04/04 04:37:27;;;;;;;18.35;6.60;;;;;;;2.30;76.98;101317.97;5053758;28;20107;-74
2022/04/04 04:39:52;;;;;;;21.00;7.90;;;;;;;2.30;76.83;101307.34;5051865;28;20423;-74
2022/04/04 04:42:18;;;;;;;22.10;7.13;;;;;;;2.33;77.51;101308.16;5052620;28;20030;-75
2022/04/04 04:44:45;;;;;;;19.65;6.88;;;;;;;2.33;77.25;101291.34;5053693;28;20047;-75
2022/04/04 04:47:10;;;;;;;19.95;7.65;;;;;;;2.35;76.98;101294.84;5048311;28;20032;-75
2022/04/04 04:49:36;;;;;;;19.08;7.20;;;;;;;2.37;77.23;101291.22;5042378;28;20025;-75
2022/04/04 04:52:01;;;;;;;18.05;7.03;;;;;;;2.38;77.26;101290.28;5045799;28;20082;-75
2022/04/04 04:54:27;;;;;;;19.42;6.63;;;;;;;2.40;77.08;101279.63;5051814;28;20044;-75
2022/04/04 04:56:53;;;;;;;21.35;7.50;;;;;;;2.42;77.40;101276.00;5052984;28;20067;-75
2022/04/04 04:59:19;;;;;;;21.50;7.57;;;;;;;2.44;77.08;101275.97;5044450;28;20877;-75
2022/04/04 05:01:44;;;;;;;23.27;7.97;;;;;;;2.47;76.72;101269.69;5043541;28;20025;-75
2022/04/04 05:04:09;;;;;;;21.63;8.30;;;;;;;2.50;76.68;101270.44;5050457;28;20037;-75
2022/04/04 05:06:35;;;;;;;20.30;7.32;;;;;;;2.53;77.10;101266.84;5047399;28;20060;-75
2022/04/04 05:09:00;;;;;;;17.88;6.75;;;;;;;2.53;76.74;101253.56;5037783;28;20041;-75
2022/04/04 05:11:26;;;;;;;17.58;6.97;;;;;;;2.54;76.87;101252.66;5039393;28;20361;-75
2022/04/04 05:13:52;;;;;;;20.20;7.55;;;;;;;2.55;76.63;101238.47;5036260;28;20044;-75
2022/04/04 05:16:17;;;;;;;20.50;7.47;;;;;;;2.56;76.73;101248.16;5039433;28;20178;-75
2022/04/04 05:18:43;;;;;;;19.48;8.38;;;;;;;2.59;77.09;101235.66;5051710;28;20020;-75
2022/04/04 05:21:09;;;;;;;22.27;7.57;;;;;;;2.62;76.89;101232.03;5052568;28;20135;-75
2022/04/04 05:23:35;;;;;;;23.67;8.82;;;;;;;2.62;76.69;101235.56;5052367;28;20029;-75
2022/04/04 05:26:00;;;;;;;21.17;7.30;;;;;;;2.65;76.74;101228.41;5051521;28;20029;-75
2022/04/04 05:28:26;;;;;;;22.23;7.88;;;;;;;2.66;76.56;101208.91;5050814;28;20074;-75
2022/04/04 05:30:51;;;;;;;19.63;7.93;;;;;;;2.67;76.83;101210.66;5052730;28;20021;-75
2022/04/04 05:33:16;;;;;;;21.13;9.45;;;;;;;2.70;76.77;101206.09;5051879;28;20033;-75
2022/04/04 05:35:42;;;;;;;24.13;9.10;;;;;;;2.72;76.92;101192.78;5049895;28;20430;-75
2022/04/04 05:38:07;;;;;;;21.20;8.82;;;;;;;2.74;77.24;101191.81;5049613;28;20039;-75
2022/04/04 05:40:32;;;;;;;24.45;9.60;;;;;;;2.76;76.76;101194.41;5052738;28;20150;-74
2022/04/04 05:42:57;;;;;;;27.48;9.85;;;;;;;2.79;76.96;101189.84;5052750;28;20021;-73
2022/04/04 05:45:23;;;;;;;25.05;9.43;;;;;;;2.82;77.03;101188.00;5051366;28;20388;-73
2022/04/04 05:47:49;;;;;;;20.40;8.30;;;;;;;2.85;76.60;101187.91;5050419;28;20033;-73
2022/04/04 05:50:14;;;;;;;22.40;8.77;;;;;;;2.89;76.18;101184.22;5045809;28;20044;-75
2022/04/04 05:52:42;;;;;;;21.88;8.85;;;;;;;2.91;76.39;101182.38;5050735;28;20017;-77
2022/04/04 05:55:07;;;;;;;22.70;8.80;;;;;;;2.93;76.26;101175.22;5048854;28;20112;-75
2022/04/04 05:57:36;;;;;;;20.70;8.05;;;;;;;2.97;76.49;101174.19;5044421;28;20551;-75
2022/04/04 06:00:03;;;;;;;20.60;8.30;;;;;;;3.01;75.67;101172.28;5034286;28;20126;-74
2022/04/04 06:02:28;;;;;;;20.65;7.97;;;;;;;3.02;76.12;101166.91;5044653;28;20029;-75
2022/04/04 06:04:53;;;;;;;20.55;7.85;;;;;;;3.05;76.08;101157.97;5052254;28;20036;-75
2022/04/04 06:07:19;;;;;;;21.88;9.27;;;;;;;3.08;75.73;101158.72;5061799;28;20052;-74
2022/04/04 06:09:45;;;;;;;22.30;8.98;;;;;;;3.11;75.13;101150.63;5052370;28;20395;-74
2022/04/04 06:12:11;;;;;;;21.30;8.80;;;;;;;3.14;75.73;101147.00;5052382;28;20082;-74
2022/04/04 06:14:36;;;;;;;20.92;8.98;;;;;;;3.19;75.33;101165.41;5052508;28;20024;-74
2022/04/04 06:17:05;;;;;;;22.52;8.77;;;;;;;3.21;74.94;101150.31;5052320;28;20036;-74
2022/04/04 06:19:30;;;;;;;20.83;7.40;;;;;;;3.23;74.65;101140.47;5051959;28;20434;-74
2022/04/04 06:21:56;;;;;;;18.42;7.63;;;;;;;3.27;74.86;101147.41;5051801;28;20025;-75
2022/04/04 06:24:22;;;;;;;24.08;9.15;;;;;;;3.31;75.31;101141.06;5051887;28;20548;-75
2022/04/04 06:26:47;;;;;;;22.52;9.50;;;;;;;3.35;75.03;101129.38;5050836;28;20083;-74
2022/04/04 06:29:12;;;;;;;20.88;10.02;;;;;;;3.39;74.51;101133.66;5038061;28;20554;-74
2022/04/04 06:31:38;;;;;;;25.92;10.13;;;;;;;3.42;74.76;101133.53;5032113;28;20374;-74
2022/04/04 06:34:08;;;;;;;25.25;9.38;;;;;;;3.46;75.09;101113.88;5032244;28;20624;-74
2022/04/04 06:36:33;;;;;;;22.27;8.77;;;;;;;3.52;74.56;101112.78;5043932;28;20021;-74
2022/04/04 06:38:59;;;;;;;20.85;8.20;;;;;;;3.60;74.49;101105.38;5047302;28;20112;-74
2022/04/04 06:41:24;;;;;;;20.48;8.93;;;;;;;3.64;74.67;101106.97;5050129;28;20025;-74
2022/04/04 06:43:50;;;;;;;21.20;8.02;;;;;;;3.69;74.26;101096.19;5047676;28;20033;-74
2022/04/04 06:46:16;;;;;;;23.98;9.88;;;;;;;3.72;73.56;101090.72;5048520;28;20055;-74
2022/04/04 06:48:42;;;;;;;21.00;9.07;;;;;;;3.77;73.83;101087.88;5050000;28;20024;-74
2022/04/04 06:51:09;;;;;;;21.85;9.13;;;;;;;3.80;73.75;101077.13;5047492;28;21920;-74
2022/04/04 06:53:34;;;;;;;21.85;9.80;;;;;;;3.85;73.38;101070.69;5048702;28;20435;-74
2022/04/04 06:56:00;;;;;;;23.92;9.82;;;;;;;3.88;72.85;101075.00;5048663;28;20033;-74
2022/04/04 06:58:26;;;;;;;22.35;8.48;;;;;;;3.92;72.99;101078.41;5049561;28;20041;-74
2022/04/04 07:00:52;;;;;;;20.83;8.15;;;;;;;3.98;73.33;101060.41;5049043;28;20021;-74
2022/04/04 07:03:17;;;;;;;25.73;8.98;;;;;;;4.04;73.92;101064.56;5049658;28;20039;-74
2022/04/04 07:05:42;;;;;;;24.27;8.48;;;;;;;4.08;73.26;101058.19;5049374;28;20043;-74
2022/04/04 07:08:08;;;;;;;23.92;9.10;;;;;;;4.14;72.96;101049.97;5049822;28;20057;-74
2022/04/04 07:10:33;;;;;;;22.00;9.18;;;;;;;4.18;72.52;101056.88;5047934;28;20044;-74
2022/04/04 07:12:59;;;;;;;20.67;8.82;;;;;;;4.23;72.02;101032.72;5049503;28;20059;-74
2022/04/04 07:15:24;;;;;;;23.92;8.45;;;;;;;4.27;71.76;101044.09;5048518;28;20388;-74
2022/04/04 07:17:50;;;;;;;22.17;8.20;;;;;;;4.31;71.65;101030.59;5048064;28;20834;-74
2022/04/04 07:20:15;;;;;;;22.02;9.15;;;;;;;4.33;71.75;101028.75;5048796;28;20492;-74
2022/04/04 07:22:42;;;;;;;22.67;9.32;;;;;;;4.36;71.19;101017.06;5049635;28;20032;-74
2022/04/04 07:25:09;;;;;;;21.60;8.73;;;;;;;4.37;70.67;101009.03;5050556;28;20025;-74
2022/04/04 07:27:42;;;;;;;22.25;8.95;;;;;;;4.40;71.53;101000.03;5050983;28;20362;-74
2022/04/04 07:30:09;;;;;;;20.70;8.30;;;;;;;4.43;71.23;101015.88;5051236;28;20066;-74
2022/04/04 07:32:36;;;;;;;21.45;8.27;;;;;;;4.47;71.06;101004.16;5045812;28;20033;-74
2022/04/04 07:35:02;;;;;;;24.98;9.60;;;;;;;4.49;71.14;101004.94;5033579;28;20036;-75
2022/04/04 07:37:28;;;;;;;22.02;8.55;;;;;;;4.53;71.00;100998.56;5051115;28;20043;-75
2022/04/04 07:39:53;;;;;;;20.27;8.75;;;;;;;4.59;71.04;100996.56;5050695;28;20108;-75
2022/04/04 07:42:18;;;;;;;21.17;8.32;;;;;;;4.62;70.69;100996.41;5049850;28;20025;-75
2022/04/04 07:44:44;;;;;;;21.38;9.07;;;;;;;4.66;70.37;100996.19;5050963;28;20033;-75
2022/04/04 07:47:09;;;;;;;21.67;8.50;;;;;;;4.72;71.01;100997.72;5050268;28;20052;-75
2022/04/04 07:49:34;;;;;;;22.58;9.27;;;;;;;4.75;71.12;100991.38;5049376;28;20021;-74
2022/04/04 07:52:00;;;;;;;23.67;8.90;;;;;;;4.77;70.50;100985.03;5051606;28;20057;-74
2022/04/04 07:54:25;;;;;;;22.70;9.05;;;;;;;4.82;71.24;100983.03;5042325;28;20087;-74
2022/04/04 07:56:53;;;;;;;23.13;8.10;;;;;;;4.86;70.83;100968.66;5053592;28;20051;-74
2022/04/04 07:59:19;;;;;;;21.80;9.18;;;;;;;4.90;70.32;100956.91;5054740;28;20055;-74
2022/04/04 08:01:44;;;;;;;18.85;8.23;;;;;;;4.97;70.70;100952.13;5054695;28;20020;-74
2022/04/04 08:04:10;;;;;;;22.35;9.52;;;;;;;5.02;69.81;100952.78;5054060;28;20357;-74
2022/04/04 08:06:35;;;;;;;21.00;8.73;;;;;;;5.09;70.53;100948.00;5053581;28;20052;-74
2022/04/04 08:09:01;;;;;;;25.08;8.63;;;;;;;5.17;70.08;100928.97;5053866;28;22090;-74
2022/04/04 08:11:26;;;;;;;21.02;8.45;;;;;;;5.22;70.08;100927.81;5054515;28;20037;-74
2022/04/04 08:13:52;;;;;;;21.67;9.70;;;;;;;5.29;69.59;100922.22;5054361;28;20392;-74
2022/04/04 08:16:17;;;;;;;21.70;8.68;;;;;;;5.35;68.88;100928.06;5054184;28;20029;-74
2022/04/04 08:18:42;;;;;;;20.88;8.48;;;;;;;5.39;68.80;100926.97;5036043;28;20476;-74
2022/04/04 08:21:07;;;;;;;22.15;8.35;;;;;;;5.44;67.97;100905.41;5054333;28;20025;-74
2022/04/04 08:23:33;;;;;;;21.67;8.00;;;;;;;5.50;67.76;100914.91;5052778;28;20032;-74
2022/04/04 08:25:59;;;;;;;20.92;7.40;;;;;;;5.55;67.37;100899.53;5054224;28;20535;-74
2022/04/04 08:28:24;;;;;;;20.98;7.93;;;;;;;5.59;66.95;100901.09;5052491;28;20048;-74
2022/04/04 08:30:50;;;;;;;21.00;7.47;;;;;;;5.64;66.81;100909.75;5050525;28;20033;-74
2022/04/04 08:33:16;;;;;;;18.27;7.63;;;;;;;5.68;66.66;100899.75;5052003;28;20087;-74
2022/04/04 08:35:42;;;;;;;20.27;7.95;;;;;;;5.74;66.83;100886.09;5053974;28;20184;-74
2022/04/04 08:38:07;;;;;;;22.13;8.63;;;;;;;5.78;66.32;100893.00;5054132;28;20477;-74
2022/04/04 08:40:32;;;;;;;21.58;8.02;;;;;;;5.84;65.75;100876.69;5054094;28;20025;-74
2022/04/04 08:43:00;;;;;;;21.52;8.23;;;;;;;5.89;65.84;100887.13;5054026;28;20368;-74
2022/04/04 08:45:26;;;;;;;20.58;8.15;;;;;;;5.96;66.05;100867.19;5053375;28;20029;-74
2022/04/04 08:47:52;;;;;;;20.50;7.13;;;;;;;6.01;64.97;100880.31;5052599;28;20472;-74
2022/04/04 08:50:18;;;;;;;28.30;8.40;;;;;;;6.05;64.61;100868.53;5053984;28;20029;-74
2022/04/04 08:52:44;;;;;;;21.13;8.15;;;;;;;6.08;65.09;100868.34;5053614;28;20583;-74
2022/04/04 08:55:11;;;;;;;23.88;8.55;;;;;;;6.11;65.43;100862.84;5053621;28;20114;-74
2022/04/04 08:57:37;;;;;;;19.27;7.35;;;;;;;6.11;64.98;100858.38;5052509;28;20035;-74
2022/04/04 09:00:03;;;;;;;21.48;7.45;;;;;;;6.10;65.19;100863.78;5053589;28;20033;-74
2022/04/04 09:02:28;;;;;;;24.40;8.38;;;;;;;6.09;65.39;100854.94;5053172;28;20029;-74
2022/04/04 09:05:02;;;;;;;21.50;7.80;;;;;;;6.08;65.90;100855.00;5044110;28;20040;-74
2022/04/04 09:07:27;;;;;;;19.73;7.30;;;;;;;6.07;66.18;100847.94;5039973;28;20077;-75
2022/04/04 09:09:53;;;;;;;19.60;7.93;;;;;;;6.07;67.01;100861.28;5050824;28;20114;-74
2022/04/04 09:12:23;;;;;;;20.35;8.73;;;;;;;6.04;67.42;100862.31;5052258;28;20392;-74
2022/04/04 09:14:57;;;;;;;22.58;9.02;;;;;;;6.03;67.13;100849.94;5049253;28;20025;-75
2022/04/04 09:17:34;;;;;;;20.13;8.65;;;;;;;6.01;67.30;100837.63;5049303;28;20040;-74
2022/04/04 09:20:08;;;;;;;21.25;8.73;;;;;;;6.01;67.68;100845.63;5033957;28;20022;-74
2022/04/04 09:22:33;;;;;;;24.50;8.57;;;;;;;6.02;67.34;100826.84;5048993;28;20028;-74
2022/04/04 09:25:02;;;;;;;21.98;8.43;;;;;;;6.02;67.60;100832.19;5044645;28;20033;-74
2022/04/04 09:27:30;;;;;;;20.33;7.85;;;;;;;6.04;68.17;100837.44;5051532;28;20057;-75
2022/04/04 09:29:59;;;;;;;20.45;8.43;;;;;;;6.03;68.43;100819.69;5053259;28;20369;-75
2022/04/04 09:32:44;;;;;;;22.85;8.68;;;;;;;6.03;69.66;100823.25;5049059;28;20071;-75
2022/04/04 09:35:14;;;;;;;22.52;8.52;;;;;;;6.02;70.25;100812.63;5052930;28;20528;-75
2022/04/04 09:37:48;;;;;;;23.52;9.07;;;;;;;5.99;71.74;100813.69;5052025;28;20117;-75
2022/04/04 09:40:24;;;;;;;24.67;8.57;;;;;;;5.95;71.90;100820.09;5023972;28;20044;-75
2022/04/04 09:42:52;;;;;;;19.83;8.70;;;;;;;5.93;72.82;100808.66;5051464;28;20054;-75
2022/04/04 09:45:24;;;;;;;24.52;9.55;;;;;;;5.88;72.19;100802.69;5052573;28;20056;-75
2022/04/04 09:47:55;;;;;;;21.42;9.10;;;;;;;5.86;72.34;100799.28;5052818;28;20384;-75
2022/04/04 09:50:46;;;;;;;21.15;8.73;;;;;;;5.87;72.85;100796.53;5052498;28;20098;-75
2022/04/04 09:53:23;;;;;;;21.30;9.38;;;;;;;5.86;73.99;100804.59;5051181;28;20127;-75
2022/04/04 09:55:48;;;;;;;20.67;8.80;;;;;;;5.85;74.92;100790.38;5052249;28;20415;-75
2022/04/04 09:58:19;;;;;;;23.15;9.95;;;;;;;5.82;74.53;100798.56;5051348;28;20082;-75
2022/04/04 10:00:46;;;;;;;21.90;9.88;;;;;;;5.79;75.12;100788.06;5052281;28;20078;-75
2022/04/04 10:03:13;;;;;;;20.77;8.88;;;;;;;5.80;75.10;100781.78;5052484;28;20029;-75
2022/04/04 10:05:43;;;;;;;19.75;8.90;;;;;;;5.79;75.23;100790.72;5052664;28;20027;-74
2022/04/04 10:08:13;;;;;;;20.95;9.40;;;;;;;5.80;76.39;100788.91;5042825;28;20041;-74
2022/04/04 10:10:39;;;;;;;22.90;8.65;;;;;;;5.77;75.06;100780.16;5052466;28;20029;-74
2022/04/04 10:13:05;;;;;;;24.77;10.45;;;;;;;5.78;76.18;100770.31;5052050;28;20396;-74
2022/04/04 10:15:30;;;;;;;22.02;10.07;;;;;;;5.79;76.81;100772.06;5051293;28;20044;-74
2022/04/04 10:17:56;;;;;;;23.15;9.80;;;;;;;5.80;77.06;100775.56;5050612;28;20020;-74
2022/04/04 10:20:22;;;;;;;21.73;9.30;;;;;;;5.80;77.31;100771.13;5052511;28;20024;-74
2022/04/04 10:22:52;;;;;;;22.30;9.85;;;;;;;5.79;77.45;100766.72;5052096;28;20051;-74
2022/04/04 10:25:21;;;;;;;22.55;10.48;;;;;;;5.78;77.49;100770.31;5047932;28;20079;-74
2022/04/04 10:27:47;;;;;;;23.65;10.65;;;;;;;5.76;78.54;100772.22;5046537;28;20068;-75
2022/04/04 10:30:16;;;;;;;21.67;9.52;;;;;;;5.73;79.21;100767.91;5048783;28;20029;-74
2022/04/04 10:32:53;;;;;;;22.85;9.50;;;;;;;5.71;79.56;100763.59;5038731;28;20025;-74
2022/04/04 10:35:21;;;;;;;24.20;10.02;;;;;;;5.68;80.33;100761.09;5051332;28;20029;-74
2022/04/04 10:37:46;;;;;;;24.52;9.77;;;;;;;5.68;80.85;100769.09;5051672;28;20048;-74
2022/04/04 10:40:18;;;;;;;21.55;10.52;;;;;;;5.69;81.78;100770.84;5050966;28;20418;-74
2022/04/04 10:42:43;;;;;;;22.25;10.38;;;;;;;5.67;82.32;100762.06;5048430;28;20032;-74
2022/04/04 10:45:11;;;;;;;28.30;10.13;;;;;;;5.66;82.43;100771.00;5051043;28;20431;-74
2022/04/04 10:47:44;;;;;;;22.30;10.20;;;;;;;5.65;82.62;100763.94;5048496;28;20163;-74
2022/04/04 10:50:25;;;;;;;24.38;10.10;;;;;;;5.62;83.48;100758.78;5066640;28;20489;-74
2022/04/04 10:52:52;;;;;;;24.60;9.98;;;;;;;5.59;83.95;100762.47;5051245;28;20082;-74
2022/04/04 10:55:27;;;;;;;24.15;10.43;;;;;;;5.54;83.81;100760.06;5036088;28;20488;-75
2022/04/04 10:57:59;;;;;;;22.75;10.05;;;;;;;5.52;84.58;100753.94;5040648;28;20056;-75
2022/04/04 11:00:32;;;;;;;22.52;9.93;;;;;;;5.56;85.47;100749.31;5042717;28;20059;-75
2022/04/04 11:02:59;;;;;;;23.13;9.73;;;;;;;5.56;85.16;100736.84;5032466;28;20615;-75
2022/04/04 11:09:26;;;;;;;20.08;9.35;;;;;;;5.65;85.77;100726.63;5032045;28;20586;-75
2022/04/04 11:12:00;;;;;;;21.30;9.68;;;;;;;5.62;86.02;100724.97;5034726;28;20028;-75
2022/04/04 11:14:28;;;;;;;22.65;7.75;;;;;;;5.60;86.43;100730.38;5051062;28;20017;-75
2022/04/04 11:17:06;;;;;;;20.48;9.63;;;;;;;5.62;86.63;100726.78;5051022;28;20108;-75
2022/04/04 11:19:48;;;;;;;24.40;9.70;;;;;;;5.58;86.20;100726.97;5050812;28;20017;-75
2022/04/04 11:22:21;;;;;;;21.02;8.85;;;;;;;5.58;87.21;100723.44;5050193;28;20071;-75
2022/04/04 11:25:07;;;;;;;21.65;9.70;;;;;;;5.56;86.86;100726.19;5066206;28;20028;-75
2022/04/04 11:27:37;;;;;;;20.08;9.18;;;;;;;5.53;86.16;100721.00;5050982;28;20107;-75